Time;durP1;ratioP1;P1;durP2;ratioP2;P2;SDS_P1;SDS_P2;PMS_P1;PMS_P2;Temp;Humidity;BMP_temperature;BMP_pressure;BME280_temperature;BME280_humidity;BME280_pressure;Samples;Min_cycle;Max_cycle;Signal;HPM_P1;HPM_P2
2022/12/03 00:01:15;;;;;;;0.00;0.00;;;;;;;6.69;89.02;101130.03;6179915;23;20016;-77
2022/12/03 00:03:41;;;;;;;0.00;0.00;;;;;;;6.47;88.51;101127.72;6138154;23;20012;-75
2022/12/03 00:06:06;;;;;;;0.00;0.00;;;;;;;6.21;89.26;101125.22;6158234;23;20008;-75
2022/12/03 00:08:32;;;;;;;0.00;0.00;;;;;;;6.09;90.30;101135.94;6184394;23;20019;-75
2022/12/03 00:10:57;;;;;;;0.00;0.00;;;;;;;6.00;90.24;101131.81;6136174;23;20439;-75
2022/12/03 00:13:23;;;;;;;0.00;0.00;;;;;;;5.99;90.61;101124.75;6182340;23;20379;-76
2022/12/03 00:15:48;;;;;;;0.00;0.00;;;;;;;6.06;90.48;101115.50;6158905;23;20389;-76
2022/12/03 00:18:14;;;;;;;0.00;0.00;;;;;;;6.11;89.50;101114.81;6184082;23;20008;-75
2022/12/03 00:20:39;;;;;;;0.05;0.05;;;;;;;6.13;89.77;101118.13;6155742;23;20016;-76
2022/12/03 00:23:07;;;;;;;0.00;0.00;;;;;;;6.09;90.03;101106.06;6159471;23;20431;-77
2022/12/03 00:25:32;;;;;;;0.00;0.00;;;;;;;6.18;89.41;101103.94;6181662;23;20551;-75
2022/12/03 00:28:05;;;;;;;0.00;0.00;;;;;;;6.06;90.47;101082.91;6211860;23;20116;-76
2022/12/03 00:30:30;;;;;;;0.00;0.00;;;;;;;5.97;90.45;101076.06;6158631;23;20013;-78
2022/12/03 00:32:56;;;;;;;0.00;0.00;;;;;;;5.88;89.95;101082.78;6136963;23;20019;-77
2022/12/03 00:35:23;;;;;;;0.00;0.00;;;;;;;5.79;89.98;101084.91;6184883;23;20009;-77
2022/12/03 00:37:49;;;;;;;0.00;0.00;;;;;;;5.48;89.87;101072.16;6182342;23;20047;-76
2022/12/03 00:40:17;;;;;;;0.00;0.00;;;;;;;5.34;90.38;101088.47;6161119;23;20372;-77
2022/12/03 00:42:45;;;;;;;0.00;0.00;;;;;;;5.06;91.18;101072.53;6156469;23;20020;-77
2022/12/03 00:45:11;;;;;;;0.00;0.00;;;;;;;4.86;91.84;101067.16;6185674;23;20765;-78
2022/12/03 00:47:36;;;;;;;0.00;0.00;;;;;;;4.85;91.88;101084.47;6157505;23;20035;-76
2022/12/03 00:50:02;;;;;;;0.00;0.00;;;;;;;4.69;92.81;101075.75;6186461;23;20604;-76
2022/12/03 00:52:27;;;;;;;0.00;0.00;;;;;;;4.78;92.98;101089.09;6158981;23;20001;-77
2022/12/03 00:54:53;;;;;;;0.00;0.00;;;;;;;4.78;92.86;101089.09;6133477;23;20018;-76
2022/12/03 00:57:18;;;;;;;0.00;0.00;;;;;;;4.68;93.56;101076.78;6184458;23;20087;-76
2022/12/03 00:59:43;;;;;;;0.00;0.00;;;;;;;4.82;93.00;101087.59;6157007;23;20008;-75
2022/12/03 01:02:11;;;;;;;0.00;0.00;;;;;;;4.87;93.13;101082.38;6184054;23;20414;-75
2022/12/03 01:04:37;;;;;;;0.00;0.00;;;;;;;5.14;93.30;101093.13;6179591;23;20444;-76
2022/12/03 01:07:02;;;;;;;0.00;0.00;;;;;;;5.22;92.13;101087.50;6210432;23;20011;-74
2022/12/03 01:09:28;;;;;;;0.00;0.00;;;;;;;5.31;91.77;101086.19;6182218;23;20092;-75
2022/12/03 01:11:53;;;;;;;0.00;0.00;;;;;;;5.25;92.02;101081.63;6207279;23;20055;-75
2022/12/03 01:14:19;;;;;;;0.00;0.00;;;;;;;5.27;92.07;101082.28;6159048;23;20419;-74
2022/12/03 01:16:46;;;;;;;0.00;0.00;;;;;;;5.29;91.91;101084.78;6208108;23;20000;-74
2022/12/03 01:19:15;;;;;;;0.00;0.00;;;;;;;5.35;91.96;101095.56;6157637;23;20013;-75
2022/12/03 01:21:42;;;;;;;0.00;0.00;;;;;;;5.42;92.00;101101.81;6185244;23;20005;-75
2022/12/03 01:24:08;;;;;;;0.00;0.00;;;;;;;5.45;91.46;101095.13;6206445;23;20009;-74
2022/12/03 01:26:33;;;;;;;0.00;0.00;;;;;;;5.41;91.31;101083.84;6184301;23;20492;-74
2022/12/03 01:28:58;;;;;;;0.00;0.00;;;;;;;5.53;91.12;101096.75;6130099;23;20295;-75
2022/12/03 01:34:08;;;;;;;0.00;0.00;;;;;;;5.58;91.50;101077.97;6182487;23;20019;-75
2022/12/03 01:36:33;;;;;;;0.00;0.00;;;;;;;5.61;92.09;101074.81;6183753;23;20431;-75
2022/12/03 01:38:59;;;;;;;0.00;0.00;;;;;;;5.67;91.37;101079.34;6128499;23;20036;-75
2022/12/03 01:41:31;;;;;;;0.00;0.00;;;;;;;5.66;90.92;101085.00;6183048;23;20008;-77
2022/12/03 01:43:59;;;;;;;0.00;0.00;;;;;;;5.70;90.90;101089.78;6159996;23;20004;-77
2022/12/03 01:46:38;;;;;;;0.00;0.00;;;;;;;5.65;91.02;101094.19;6210897;23;20001;-77
2022/12/03 01:49:04;;;;;;;0.00;0.00;;;;;;;5.46;91.43;101068.81;6184142;23;20091;-75
2022/12/03 01:51:30;;;;;;;0.00;0.00;;;;;;;5.62;91.65;101095.44;6158850;23;20026;-77
2022/12/03 01:53:57;;;;;;;0.00;0.00;;;;;;;5.53;91.40;101085.91;6135208;23;20011;-76
2022/12/03 01:56:22;;;;;;;0.00;0.00;;;;;;;5.51;90.57;101082.56;6153595;23;20020;-76
2022/12/03 01:58:50;;;;;;;0.00;0.00;;;;;;;5.40;90.25;101070.50;6213252;23;20008;-76
2022/12/03 02:01:17;;;;;;;0.00;0.00;;;;;;;5.40;90.40;101090.34;6149298;23;20017;-76
2022/12/03 02:03:44;;;;;;;0.00;0.00;;;;;;;5.26;90.46;101075.19;6180487;23;20000;-76
2022/12/03 02:06:38;;;;;;;0.00;0.00;;;;;;;5.41;90.58;101094.69;6150836;23;20023;-76
2022/12/03 02:09:07;;;;;;;0.00;0.00;;;;;;;5.45;90.05;101096.97;6174560;23;20020;-75
2022/12/03 02:11:36;;;;;;;0.03;0.03;;;;;;;5.34;89.90;101080.34;6179995;23;20024;-76
2022/12/03 02:14:06;;;;;;;0.00;0.00;;;;;;;5.47;90.71;101076.75;6182071;23;20005;-77
2022/12/03 02:16:34;;;;;;;0.00;0.00;;;;;;;5.60;89.42;101081.28;6177620;23;20391;-77
2022/12/03 02:18:59;;;;;;;0.00;0.00;;;;;;;5.57;89.92;101076.28;6178895;23;20059;-77
2022/12/03 02:22:06;;;;;;;0.00;0.00;;;;;;;5.67;89.44;101092.09;6177250;23;20009;-76
2022/12/03 02:24:34;;;;;;;0.00;0.00;;;;;;;5.72;89.27;101100.41;6180065;23;20059;-77
2022/12/03 02:27:00;;;;;;;0.00;0.00;;;;;;;5.74;88.72;101098.31;6174109;23;20044;-76
2022/12/03 02:29:26;;;;;;;0.00;0.00;;;;;;;5.57;88.03;101070.84;6179709;23;20012;-77
2022/12/03 02:31:56;;;;;;;0.00;0.00;;;;;;;5.62;88.54;101073.72;6179374;23;20005;-76
2022/12/03 02:34:42;;;;;;;0.00;0.00;;;;;;;5.59;88.52;101079.59;6178245;23;20004;-77
2022/12/03 02:37:29;;;;;;;;;;;;;;;;;;;;;
2022/12/03 02:39:58;;;;;;;0.00;0.00;;;;;;;5.61;88.06;101080.22;6179366;23;20112;-77
2022/12/03 02:42:36;;;;;;;0.00;0.00;;;;;;;5.68;87.84;101091.88;6174257;23;20833;-74
2022/12/03 02:45:05;;;;;;;0.00;0.00;;;;;;;5.70;87.76;101091.66;6157359;23;20096;-76
2022/12/03 02:47:34;;;;;;;0.00;0.00;;;;;;;5.70;86.96;101087.06;6173638;23;20670;-75
2022/12/03 02:50:11;;;;;;;0.00;0.00;;;;;;;5.67;86.63;101082.06;6178071;23;20009;-75
2022/12/03 02:52:38;;;;;;;0.00;0.00;;;;;;;5.66;87.26;101074.97;6175669;23;20135;-75
2022/12/03 02:55:06;;;;;;;0.00;0.00;;;;;;;5.66;86.79;101069.53;6179368;23;19997;-75
2022/12/03 02:57:37;;;;;;;0.00;0.00;;;;;;;5.76;86.77;101080.75;6174328;23;20013;-75
2022/12/03 03:00:05;;;;;;;0.00;0.00;;;;;;;5.76;86.85;101078.03;6180575;23;20001;-75
2022/12/03 03:02:31;;;;;;;0.00;0.00;;;;;;;5.73;87.07;101069.50;6175349;23;20021;-75
2022/12/03 03:04:57;;;;;;;0.00;0.00;;;;;;;5.77;87.00;101077.00;6174563;23;20342;-75
2022/12/03 03:07:22;;;;;;;0.00;0.00;;;;;;;5.85;87.15;101088.66;6127952;23;20386;-75
2022/12/03 03:09:48;;;;;;;0.05;0.05;;;;;;;5.83;86.38;101074.47;6147614;23;20009;-76
2022/12/03 03:12:13;;;;;;;0.08;0.08;;;;;;;5.90;86.36;101086.13;6180423;23;20040;-77
2022/12/03 03:14:39;;;;;;;0.00;0.00;;;;;;;5.87;85.30;101072.97;6174944;23;20401;-75
2022/12/03 03:17:17;;;;;;;;;;;;;;;;;;;;;
2022/12/03 03:19:43;;;;;;;0.00;0.00;;;;;;;6.05;84.16;101083.94;6175726;23;20079;-75
2022/12/03 03:22:10;;;;;;;0.00;0.00;;;;;;;6.04;84.04;101082.28;6177996;23;20092;-74
2022/12/03 03:24:41;;;;;;;0.00;0.00;;;;;;;5.90;83.13;101073.38;6180155;23;20055;-77
2022/12/03 03:27:07;;;;;;;0.00;0.00;;;;;;;5.72;82.72;101051.56;6177191;23;20079;-76
2022/12/03 03:29:33;;;;;;;0.00;0.00;;;;;;;5.90;83.45;101086.94;6179046;23;20643;-75
2022/12/03 03:32:00;;;;;;;0.00;0.00;;;;;;;5.84;82.83;101065.25;6149983;23;20055;-75
2022/12/03 03:34:29;;;;;;;0.00;0.00;;;;;;;5.77;83.40;101060.72;6181743;23;20084;-75
2022/12/03 03:36:54;;;;;;;0.00;0.00;;;;;;;5.87;83.14;101064.81;6149609;23;20087;-76
2022/12/03 03:39:20;;;;;;;0.00;0.00;;;;;;;5.84;81.70;101060.69;6127437;23;20044;-76
2022/12/03 03:41:49;;;;;;;0.00;0.00;;;;;;;5.95;81.77;101065.38;6156402;23;20016;-76
2022/12/03 03:44:14;;;;;;;0.00;0.00;;;;;;;5.84;81.86;101043.53;6178808;23;20436;-77
2022/12/03 03:46:41;;;;;;;0.00;0.00;;;;;;;5.96;81.45;101047.22;6129306;23;20016;-77
2022/12/03 03:49:06;;;;;;;0.00;0.00;;;;;;;6.09;81.99;101041.72;6175818;23;20443;-78
2022/12/03 03:51:34;;;;;;;0.00;0.00;;;;;;;6.29;80.94;101063.31;6177327;23;20005;-77
2022/12/03 03:54:01;;;;;;;0.00;0.00;;;;;;;6.20;80.89;101064.59;6173384;23;19997;-77
2022/12/03 03:56:27;;;;;;;0.00;0.00;;;;;;;6.19;80.31;101056.69;6154447;23;20005;-76
2022/12/03 03:58:53;;;;;;;0.00;0.00;;;;;;;6.36;80.73;101055.06;6175485;23;20012;-76
2022/12/03 04:01:19;;;;;;;0.00;0.00;;;;;;;6.20;79.69;101039.34;6152627;23;20025;-76
2022/12/03 04:03:44;;;;;;;0.00;0.00;;;;;;;6.23;79.24;101049.75;6154151;23;20332;-76
2022/12/03 04:06:10;;;;;;;0.00;0.00;;;;;;;6.22;79.45;101057.09;6125791;23;20033;-76
2022/12/03 04:08:35;;;;;;;0.00;0.00;;;;;;;6.43;79.59;101053.13;6152677;23;20013;-76
2022/12/03 04:13:45;;;;;;;0.00;0.00;;;;;;;6.24;78.60;101046.00;6157225;23;20068;-76
2022/12/03 04:16:10;;;;;;;0.00;0.00;;;;;;;6.16;79.16;101048.97;6149835;23;20009;-77
2022/12/03 04:18:41;;;;;;;0.00;0.00;;;;;;;6.07;79.09;101054.69;6179225;23;20013;-77
2022/12/03 04:23:52;;;;;;;0.00;0.00;;;;;;;6.09;79.45;101049.88;6173270;23;20415;-77
2022/12/03 04:29:03;;;;;;;0.00;0.00;;;;;;;5.91;79.23;101036.19;6179930;23;20016;-76
2022/12/03 04:36:57;;;;;;;0.00;0.00;;;;;;;5.89;79.79;101019.31;6175918;23;20024;-77
2022/12/03 04:39:22;;;;;;;0.00;0.00;;;;;;;5.95;79.06;101040.13;6127920;23;20009;-76
2022/12/03 04:41:47;;;;;;;0.00;0.00;;;;;;;5.93;78.96;101036.81;6152808;23;20017;-76
2022/12/03 04:46:57;;;;;;;0.00;0.00;;;;;;;6.09;79.28;101033.59;6176316;23;20040;-76
2022/12/03 04:49:22;;;;;;;0.00;0.00;;;;;;;6.02;79.22;101027.38;6175548;23;20243;-76
2022/12/03 04:51:48;;;;;;;0.00;0.00;;;;;;;6.13;79.49;101019.56;6202030;23;20016;-76
2022/12/03 04:54:14;;;;;;;0.00;0.00;;;;;;;6.17;77.85;101021.59;6147661;23;20016;-76
2022/12/03 04:56:39;;;;;;;0.00;0.00;;;;;;;6.15;77.83;101026.44;6177982;23;20440;-76
2022/12/03 04:59:04;;;;;;;0.00;0.00;;;;;;;6.06;76.00;101020.44;6174111;23;20032;-76
2022/12/03 05:01:30;;;;;;;0.00;0.00;;;;;;;6.17;76.08;101034.38;6153709;23;20025;-76
2022/12/03 05:03:55;;;;;;;0.00;0.00;;;;;;;6.08;75.91;101023.75;6149504;23;20004;-76
2022/12/03 05:06:21;;;;;;;0.00;0.00;;;;;;;6.05;75.82;101020.69;6127658;23;20146;-76
2022/12/03 05:08:47;;;;;;;0.00;0.00;;;;;;;5.96;74.84;101017.38;6175686;23;20124;-76
2022/12/03 05:11:12;;;;;;;0.00;0.00;;;;;;;5.99;74.97;101003.38;6173444;23;20084;-76
2022/12/03 05:13:38;;;;;;;0.00;0.00;;;;;;;6.13;75.34;101020.38;6176763;23;20099;-77
2022/12/03 05:16:03;;;;;;;0.00;0.00;;;;;;;6.22;75.18;101007.34;6175052;23;20040;-76
2022/12/03 05:18:29;;;;;;;0.00;0.00;;;;;;;6.25;74.75;101026.75;6177079;23;20016;-76
2022/12/03 05:20:54;;;;;;;0.00;0.00;;;;;;;6.14;73.31;101015.78;6178216;23;20468;-77
2022/12/03 05:23:22;;;;;;;0.00;0.00;;;;;;;6.01;74.45;101014.03;6174532;23;20301;-77
2022/12/03 05:25:55;;;;;;;0.05;0.05;;;;;;;5.94;74.83;101011.31;6179562;23;20607;-77
2022/12/03 05:28:23;;;;;;;0.00;0.00;;;;;;;5.94;74.77;101016.75;6172365;23;20402;-78
2022/12/03 05:30:48;;;;;;;0.00;0.00;;;;;;;5.80;74.92;100991.59;6129343;23;20008;-77
2022/12/03 05:33:14;;;;;;;0.00;0.00;;;;;;;5.91;74.88;101020.75;6154382;23;20415;-77
2022/12/03 05:35:39;;;;;;;0.00;0.00;;;;;;;5.82;75.90;101004.94;6124721;23;20016;-78
2022/12/03 05:38:05;;;;;;;0.00;0.00;;;;;;;5.88;75.10;101009.50;6175924;23;20511;-77
2022/12/03 05:40:30;;;;;;;0.00;0.00;;;;;;;5.94;75.68;101017.59;6145153;23;20048;-77
2022/12/03 05:42:56;;;;;;;0.00;0.00;;;;;;;5.92;75.57;101013.44;6178664;23;20009;-76
2022/12/03 05:45:26;;;;;;;0.00;0.00;;;;;;;5.89;76.38;101020.13;6146797;23;20071;-76
2022/12/03 05:47:53;;;;;;;0.00;0.00;;;;;;;5.70;76.76;100992.06;6178362;23;20077;-76
2022/12/03 05:50:20;;;;;;;0.00;0.00;;;;;;;5.80;76.36;101012.47;6175211;23;20036;-76
2022/12/03 05:52:45;;;;;;;0.00;0.00;;;;;;;5.83;78.07;101002.00;6201023;23;20005;-77
2022/12/03 05:55:11;;;;;;;0.00;0.00;;;;;;;5.80;77.27;100993.47;6150045;23;20428;-76
2022/12/03 05:57:37;;;;;;;0.00;0.00;;;;;;;5.88;77.56;100990.50;6174671;23;20064;-75
2022/12/03 06:00:06;;;;;;;0.00;0.00;;;;;;;5.82;77.25;100986.75;6177928;23;20009;-76
2022/12/03 06:02:32;;;;;;;0.00;0.00;;;;;;;5.80;76.70;100990.75;6172907;23;20013;-77
2022/12/03 06:05:00;;;;;;;0.00;0.00;;;;;;;5.71;76.57;100974.75;6128523;23;20019;-77
2022/12/03 06:07:25;;;;;;;0.00;0.00;;;;;;;5.58;75.37;100964.00;6175792;23;20005;-76
2022/12/03 06:09:51;;;;;;;0.00;0.00;;;;;;;5.62;75.77;100976.06;6178223;23;20009;-77
2022/12/03 06:12:16;;;;;;;0.00;0.00;;;;;;;5.74;75.56;100987.88;6179845;23;20000;-76
2022/12/03 06:14:41;;;;;;;0.00;0.00;;;;;;;5.80;75.61;100966.31;6147383;23;20005;-75
2022/12/03 06:17:07;;;;;;;0.00;0.00;;;;;;;5.90;75.33;100980.25;6180374;23;20016;-76
2022/12/03 06:19:32;;;;;;;0.00;0.00;;;;;;;5.94;74.77;100968.72;6123227;23;20578;-75
2022/12/03 06:22:00;;;;;;;0.00;0.00;;;;;;;5.93;74.36;100969.78;6151865;23;20049;-76
2022/12/03 06:24:26;;;;;;;0.00;0.00;;;;;;;5.97;74.40;100959.31;6180164;23;20033;-76
2022/12/03 06:26:51;;;;;;;0.00;0.00;;;;;;;5.92;73.03;100970.00;6172359;23;20016;-75
2022/12/03 06:29:17;;;;;;;0.00;0.00;;;;;;;5.71;73.87;100947.63;6179049;23;19997;-78
2022/12/03 06:31:42;;;;;;;0.00;0.00;;;;;;;5.64;74.24;100946.84;6174135;23;20009;-75
2022/12/03 06:34:08;;;;;;;0.00;0.00;;;;;;;5.73;74.41;100953.63;6123625;23;20020;-77
2022/12/03 06:36:33;;;;;;;0.00;0.00;;;;;;;5.75;74.97;100956.97;6176355;23;20001;-77
2022/12/03 06:38:58;;;;;;;0.00;0.00;;;;;;;5.72;74.68;100948.44;6146801;23;20009;-76
2022/12/03 06:41:24;;;;;;;0.00;0.00;;;;;;;5.61;74.84;100936.44;6153389;23;20009;-76
2022/12/03 06:43:49;;;;;;;0.00;0.00;;;;;;;5.72;74.98;100934.88;6171347;23;20075;-76
2022/12/03 06:46:15;;;;;;;0.00;0.00;;;;;;;5.89;74.75;100949.53;6177810;23;20012;-78
2022/12/03 06:48:40;;;;;;;0.10;0.10;;;;;;;5.98;74.64;100952.84;6148062;23;20474;-75
2022/12/03 06:51:06;;;;;;;0.00;0.00;;;;;;;6.01;75.25;100948.84;6177361;23;20005;-76
2022/12/03 06:53:34;;;;;;;0.00;0.00;;;;;;;6.15;74.01;100938.69;6149411;23;20027;-77
2022/12/03 06:55:59;;;;;;;0.00;0.00;;;;;;;6.03;73.44;100934.00;6172751;23;20037;-77
2022/12/03 06:58:27;;;;;;;0.00;0.00;;;;;;;5.88;73.05;100931.59;6178296;23;20001;-78
2022/12/03 07:00:58;;;;;;;0.00;0.00;;;;;;;5.90;74.50;100939.53;6151596;23;20648;-77
2022/12/03 07:03:25;;;;;;;0.00;0.00;;;;;;;5.83;74.48;100933.34;6159445;23;20001;-79
2022/12/03 07:05:51;;;;;;;0.00;0.00;;;;;;;5.89;73.73;100932.44;6180784;23;20432;-79
2022/12/03 07:08:21;;;;;;;0.00;0.00;;;;;;;5.86;73.58;100932.88;6183508;23;20001;-77
2022/12/03 07:11:30;;;;;;;0.00;0.00;;;;;;;5.92;73.35;100929.28;6180759;23;20481;-80
2022/12/03 07:14:00;;;;;;;0.00;0.00;;;;;;;5.86;73.48;100911.16;6185659;23;20047;-79
2022/12/03 07:16:29;;;;;;;0.00;0.00;;;;;;;5.94;73.36;100932.59;6153696;23;20088;-78
2022/12/03 07:19:02;;;;;;;0.00;0.00;;;;;;;6.14;74.13;100937.06;6231019;23;19991;-79
2022/12/03 07:21:28;;;;;;;0.00;0.00;;;;;;;6.15;73.42;100925.09;6197153;23;20012;-76
2022/12/03 07:23:56;;;;;;;0.00;0.00;;;;;;;6.16;73.19;100921.34;6207765;23;20234;-77
2022/12/03 07:26:21;;;;;;;0.00;0.00;;;;;;;6.06;73.24;100922.69;6210822;23;20005;-77
2022/12/03 07:29:07;;;;;;;;;;;;;;;;;;;;;
2022/12/03 07:31:41;;;;;;;0.00;0.00;;;;;;;5.87;73.48;100897.38;6185451;23;20076;-77
2022/12/03 07:34:07;;;;;;;0.00;0.00;;;;;;;6.01;73.33;100941.53;6183088;23;20015;-77
2022/12/03 07:36:45;;;;;;;;;;;;;;;;;;;;;
2022/12/03 07:39:17;;;;;;;0.00;0.00;;;;;;;5.90;73.42;100912.41;6163318;23;20396;-76
2022/12/03 07:41:49;;;;;;;0.00;0.00;;;;;;;5.85;73.74;100904.06;6144455;23;20015;-78
2022/12/03 07:44:15;;;;;;;0.00;0.00;;;;;;;5.97;74.11;100918.59;6187238;23;20008;-75
2022/12/03 07:46:41;;;;;;;0.00;0.00;;;;;;;5.91;74.02;100916.75;6164158;23;20423;-83
2022/12/03 07:49:06;;;;;;;0.00;0.00;;;;;;;5.76;74.46;100928.78;6186509;23;20272;-80
2022/12/03 07:51:41;;;;;;;0.00;0.00;;;;;;;5.54;74.77;100911.22;6135839;23;20683;-79
2022/12/03 07:54:07;;;;;;;0.00;0.00;;;;;;;5.33;75.56;100905.13;6180944;23;20335;-79
2022/12/03 07:56:33;;;;;;;0.00;0.00;;;;;;;5.30;76.42;100913.69;6185233;23;20040;-80
2022/12/03 07:58:58;;;;;;;0.00;0.00;;;;;;;5.25;77.00;100910.78;6182287;23;20031;-79
2022/12/03 08:01:52;;;;;;;;;;;;;;;;;;;;;
2022/12/03 08:04:19;;;;;;;0.00;0.00;;;;;;;5.21;78.24;100920.41;6176686;23;20100;-77
2022/12/03 08:06:45;;;;;;;0.00;0.00;;;;;;;5.24;78.75;100919.97;6205754;23;20040;-78
2022/12/03 08:09:11;;;;;;;0.00;0.00;;;;;;;5.26;78.55;100923.31;6175238;23;20009;-78
2022/12/03 08:11:36;;;;;;;0.00;0.00;;;;;;;5.23;78.48;100918.34;6178890;23;20000;-78
2022/12/03 08:14:16;;;;;;;0.00;0.00;;;;;;;5.25;78.95;100921.66;6205969;23;20016;-77
2022/12/03 08:16:49;;;;;;;0.00;0.00;;;;;;;5.16;79.01;100893.13;6177703;23;20044;-77
2022/12/03 08:40:29;;;;;;;0.00;0.00;;;;;;;5.44;80.23;100919.84;5979221;23;20137;-79
2022/12/03 09:03:51;;;;;;;0.00;0.00;;;;;;;5.36;78.45;100879.41;5899371;24;20119;-84
2022/12/03 09:14:30;;;;;;;;;;;;;;;;;;;;;
2022/12/03 09:17:00;;;;;;;;;;;;;;;;;;;;;
2022/12/03 09:20:43;;;;;;;;;;;;;;;;;;;;;
2022/12/03 09:23:01;;;;;;;0.08;0.08;;;;;;;5.36;80.15;100874.00;6087588;23;20097;-77
2022/12/03 09:25:57;;;;;;;;;;;;;;;;;;;;;
2022/12/03 09:29:17;;;;;;;;;;;;;;;;;;;;;
2022/12/03 09:42:59;;;;;;;;;;;;;;;;;;;;;
2022/12/03 09:46:14;;;;;;;0.00;0.00;;;;;;;5.82;80.10;100870.06;5983387;23;20036;-79
2022/12/03 09:48:44;;;;;;;0.00;0.00;;;;;;;5.56;79.47;100835.84;6001348;23;20079;-76
2022/12/03 09:51:10;;;;;;;0.00;0.00;;;;;;;5.61;80.17;100855.03;6065950;23;20062;-77
2022/12/03 09:53:58;;;;;;;0.00;0.00;;;;;;;5.80;81.05;100874.03;6169571;23;20005;-77
2022/12/03 10:20:44;;;;;;;0.00;0.00;;;;;;;6.01;80.80;100843.78;5918462;24;19988;-78
2022/12/03 10:23:51;;;;;;;;;;;;;;;;;;;;;
2022/12/03 10:26:51;;;;;;;;;;;;;;;;;;;;;
2022/12/03 10:29:37;;;;;;;0.00;0.00;;;;;;;6.02;80.20;100818.31;6088978;23;20528;-78
2022/12/03 10:32:07;;;;;;;0.00;0.00;;;;;;;6.04;80.09;100813.47;6137641;23;20004;-76
2022/12/03 10:38:05;;;;;;;0.00;0.00;;;;;;;6.27;79.24;100820.13;6201307;23;20013;-77
2022/12/03 10:40:35;;;;;;;0.00;0.00;;;;;;;6.34;79.80;100815.44;6179216;23;20008;-75
2022/12/03 10:43:24;;;;;;;0.00;0.00;;;;;;;6.41;79.22;100810.75;6181699;23;20011;-74
2022/12/03 10:46:11;;;;;;;0.00;0.00;;;;;;;6.42;78.45;100806.94;6206465;23;20179;-74
2022/12/03 10:48:39;;;;;;;0.00;0.00;;;;;;;6.47;78.52;100804.38;6207926;23;20316;-74
2022/12/03 10:51:21;;;;;;;0.00;0.00;;;;;;;6.53;78.86;100791.78;6158536;23;20020;-74
2022/12/03 10:53:53;;;;;;;0.00;0.00;;;;;;;6.57;78.75;100801.13;6176687;23;20336;-73
2022/12/03 10:56:26;;;;;;;0.00;0.00;;;;;;;6.53;78.32;100791.78;6157494;23;20016;-75
2022/12/03 10:58:52;;;;;;;0.00;0.00;;;;;;;6.64;78.74;100799.16;6181082;23;20008;-76
2022/12/03 11:01:24;;;;;;;0.00;0.00;;;;;;;6.67;78.73;100803.28;6181160;23;20355;-74
2022/12/03 11:03:50;;;;;;;0.00;0.00;;;;;;;6.73;79.44;100796.94;6212143;23;20020;-75
2022/12/03 11:06:36;;;;;;;0.00;0.00;;;;;;;6.69;79.43;100784.88;6177378;23;20030;-75
2022/12/03 11:09:03;;;;;;;0.00;0.00;;;;;;;6.71;79.42;100782.72;6177213;23;20032;-74
2022/12/03 11:11:36;;;;;;;0.00;0.00;;;;;;;6.62;78.86;100762.38;6180349;23;20005;-75
2022/12/03 11:14:10;;;;;;;0.00;0.00;;;;;;;6.69;78.97;100774.00;6180620;23;20036;-75
2022/12/03 11:16:38;;;;;;;0.00;0.00;;;;;;;6.77;78.97;100781.81;6209547;23;20093;-75
2022/12/03 11:19:14;;;;;;;0.00;0.00;;;;;;;6.80;79.61;100773.22;6183283;23;20001;-75
2022/12/03 11:25:49;;;;;;;0.00;0.00;;;;;;;6.99;79.01;100760.38;6162049;23;20016;-76
2022/12/03 11:28:54;;;;;;;0.00;0.00;;;;;;;7.01;78.94;100754.69;6120689;23;20098;-75
2022/12/03 11:31:52;;;;;;;0.00;0.00;;;;;;;7.08;79.33;100751.84;6209682;23;20001;-76
2022/12/03 11:34:58;;;;;;;0.00;0.00;;;;;;;7.23;78.98;100756.81;6185342;23;20015;-75
2022/12/03 11:37:25;;;;;;;0.00;0.00;;;;;;;7.11;78.83;100727.75;6205297;23;20009;-75
2022/12/03 11:39:50;;;;;;;0.00;0.00;;;;;;;7.25;78.64;100749.28;6211649;23;20016;-76
2022/12/03 11:42:40;;;;;;;0.00;0.00;;;;;;;7.10;77.79;100736.97;6176708;23;20013;-75
2022/12/03 11:45:08;;;;;;;0.00;0.00;;;;;;;7.14;78.23;100734.56;6210078;23;20344;-77
2022/12/03 11:47:39;;;;;;;0.00;0.00;;;;;;;7.23;78.85;100729.63;6178464;23;20005;-74
2022/12/03 11:50:20;;;;;;;0.00;0.00;;;;;;;7.35;78.43;100744.06;6182488;23;20015;-75
2022/12/03 11:53:07;;;;;;;0.00;0.00;;;;;;;7.33;78.91;100719.81;6210871;23;20028;-76
2022/12/03 11:56:01;;;;;;;;;;;;;;;;;;;;;
2022/12/03 11:58:36;;;;;;;0.05;0.05;;;;;;;8.23;76.92;100730.38;6214751;23;20372;-74
2022/12/03 12:08:49;;;;;;;0.00;0.00;;;;;;;9.39;72.64;100726.38;5995320;23;20347;-76
2022/12/03 12:11:47;;;;;;;;;;;;;;;;;;;;;
2022/12/03 12:14:58;;;;;;;0.00;0.00;;;;;;;10.18;71.62;100729.00;6002392;23;20091;-80
2022/12/03 12:17:54;;;;;;;;;;;;;;;;;;;;;
2022/12/03 12:21:00;;;;;;;;;;;;;;;;;;;;;
2022/12/03 12:23:27;;;;;;;0.00;0.00;;;;;;;12.26;67.46;100685.31;6056444;23;20119;-77
2022/12/03 12:26:13;;;;;;;0.00;0.00;;;;;;;14.14;63.73;100678.97;6063845;23;20007;-75
2022/12/03 12:28:53;;;;;;;0.00;0.00;;;;;;;17.08;57.06;100684.75;6033152;23;20017;-75
2022/12/03 12:32:51;;;;;;;;;;;;;;;;;;;;;
2022/12/03 12:38:48;;;;;;;0.00;0.00;;;;;;;21.44;42.84;100690.16;6093268;23;20030;-80
2022/12/03 13:02:16;;;;;;;0.00;0.00;;;;;;;24.62;31.81;100628.75;6009218;23;20122;-81
2022/12/03 13:05:13;;;;;;;0.00;0.00;;;;;;;25.09;30.91;100650.41;5980379;23;20154;-82
2022/12/03 13:08:45;;;;;;;0.00;0.00;;;;;;;23.60;32.67;100626.88;6039934;23;20045;-82
2022/12/03 13:12:19;;;;;;;;;;;;;;;;;;;;;
2022/12/03 14:08:07;;;;;;;;;;;;;;;;;;;;;
2022/12/03 14:39:30;;;;;;;;;;;;;;;;;;;;;
2022/12/03 14:45:46;;;;;;;0.00;0.00;;;;;;;7.99;71.40;100528.13;5753044;24;20092;-81
2022/12/03 15:11:37;;;;;;;;;;;;;;;;;;;;;
2022/12/03 15:17:26;;;;;;;;;;;;;;;;;;;;;
2022/12/03 15:41:50;;;;;;;0.00;0.00;;;;;;;7.17;76.85;100530.16;5860025;24;20067;-83
2022/12/03 15:55:22;;;;;;;0.00;0.00;;;;;;;6.75;78.05;100495.81;5962500;24;20005;-81
2022/12/03 15:58:31;;;;;;;0.00;0.00;;;;;;;6.85;78.80;100518.84;5948173;23;20056;-83
2022/12/03 16:01:18;;;;;;;0.00;0.00;;;;;;;6.92;78.63;100536.69;6042832;23;20034;-82
2022/12/03 16:04:12;;;;;;;0.00;0.00;;;;;;;6.82;78.55;100528.31;6024130;23;20466;-81
2022/12/03 16:06:37;;;;;;;0.00;0.00;;;;;;;6.58;78.99;100493.00;6035934;23;20080;-81
2022/12/03 16:12:33;;;;;;;0.00;0.00;;;;;;;6.64;79.11;100507.53;6011640;23;20060;-82
2022/12/03 16:15:39;;;;;;;;;;;;;;;;;;;;;
2022/12/03 16:18:08;;;;;;;0.10;0.10;;;;;;;6.60;79.67;100498.19;6093410;23;20092;-82
2022/12/03 16:31:19;;;;;;;0.00;0.00;;;;;;;6.73;80.28;100527.88;6187528;23;20008;-82
2022/12/03 16:34:02;;;;;;;0.00;0.00;;;;;;;6.49;80.23;100485.47;6185978;23;20017;-82
2022/12/03 16:36:45;;;;;;;;;;;;;;;;;;;;;
2022/12/03 16:40:03;;;;;;;;;;;;;;;;;;;;;
2022/12/03 16:42:39;;;;;;;;;;;;;;;;;;;;;
2022/12/03 16:49:41;;;;;;;;;;;;;;;;;;;;;
2022/12/03 16:52:31;;;;;;;0.00;0.00;;;;;;;6.45;80.66;100485.94;6056073;23;20441;-77
2022/12/03 16:55:51;;;;;;;0.00;0.00;;;;;;;6.46;80.77;100481.34;6045914;23;20006;-76
2022/12/03 17:13:02;;;;;;;;;;;;;;;;;;;;;
2022/12/03 17:16:10;;;;;;;0.00;0.00;;;;;;;6.55;81.17;100501.63;5984671;23;20079;-80
2022/12/03 17:21:49;;;;;;;0.00;0.00;;;;;;;6.63;80.95;100508.63;6044839;23;20445;-79
2022/12/03 17:28:53;;;;;;;0.00;0.00;;;;;;;6.35;81.41;100469.41;5936442;24;20017;-83
2022/12/03 17:32:10;;;;;;;;;;;;;;;;;;;;;
2022/12/03 17:34:47;;;;;;;0.00;0.00;;;;;;;6.51;80.79;100500.44;5949637;24;20095;-79
2022/12/03 17:37:42;;;;;;;0.00;0.00;;;;;;;6.39;80.09;100481.44;6065899;23;20018;-80
2022/12/03 17:40:59;;;;;;;;;;;;;;;;;;;;;
2022/12/03 17:47:25;;;;;;;;;;;;;;;;;;;;;
2022/12/03 17:50:54;;;;;;;;;;;;;;;;;;;;;
2022/12/03 17:53:29;;;;;;;0.00;0.00;;;;;;;6.47;78.91;100497.41;6100820;23;21222;-81
2022/12/03 17:56:24;;;;;;;0.00;0.00;;;;;;;6.35;79.34;100474.84;6097803;23;20032;-81
2022/12/03 18:02:54;;;;;;;0.00;0.00;;;;;;;6.50;78.27;100498.81;6066232;23;20537;-82
2022/12/03 18:05:46;;;;;;;0.00;0.00;;;;;;;6.40;78.13;100483.09;6040049;23;20010;-82
2022/12/03 18:16:10;;;;;;;;;;;;;;;;;;;;;
2022/12/03 18:40:52;;;;;;;0.00;0.00;;;;;;;6.31;78.55;100470.94;5883537;24;20017;-80
2022/12/03 18:44:28;;;;;;;;;;;;;;;;;;;;;
2022/12/03 19:08:13;;;;;;;;;;;;;;;;;;;;;
2022/12/03 19:24:38;;;;;;;0.00;0.00;;;;;;;6.01;78.68;100424.91;5867921;24;20018;-79
2022/12/03 19:27:06;;;;;;;0.00;0.00;;;;;;;6.18;79.31;100457.63;5929848;23;20013;-79
2022/12/03 19:29:57;;;;;;;0.00;0.00;;;;;;;6.08;79.04;100448.16;6066507;23;20529;-81
2022/12/03 19:32:27;;;;;;;0.00;0.00;;;;;;;5.97;79.49;100424.53;6135389;23;20020;-77
2022/12/03 19:35:06;;;;;;;;;;;;;;;;;;;;;
2022/12/03 19:37:34;;;;;;;0.00;0.00;;;;;;;5.82;79.47;100429.59;6154453;23;20076;-81